首页
METAR-TAF:

METAR-TAF

机场 :

巴黎-勒布尔热机场

巴黎, 法国

纬度: 48-58N, 经度: 002-27E, 海拔: 66米

当前天气观测

该预报发布于28分钟前的14:30 UTC
风速18节,风向西南
温度 14°C
湿度 77%
气压 1022 hPa
能见度10公里或以上
阴天层高于1900英尺

METAR: LFPB 231430Z AUTO 23018KT 9999 OVC019 14/10 Q1022 TEMPO BKN012 BECMG 23020G30KT

时间: 15:58 (14:58 UTC)

预报

该预报发布于1小时和48分钟前的13:10 UTC
预报有效从23日的 13点(UTC)到 24日的 12点(UTC)
风速20节,风向西南,有时为30节阵风
能见度10公里或以上
多云层高于1700英尺
短暂存在
从 23日的 13点(UTC)到 23日的 18点(UTC)
多云层高于1200英尺
成为
从 23日的 18点(UTC)到 23日的 20点(UTC)
风速10节,风向西
几率 40% :
短暂存在
从 23日的 18点(UTC)到 23日的 24点(UTC)
多云层高于800英尺
成为
从 24日的 00点(UTC)到 24日的 02点(UTC)
风速5节,风向南转西南
多云层高于800英尺
短暂存在
从 24日的 02点(UTC)到 24日的 07点(UTC)
能見度: 3000
多云层高于300英尺
雨, 毛毛雨
成为
从 24日的 08点(UTC)到 24日的 11点(UTC)
风速15节,风向西南,有时为30节阵风
多云层高于1700英尺

TAF: LFPB 231310Z 2313/2412 23020G30KT 9999 BKN017 TEMPO 2313/2318 BKN012 BECMG 2318/2320 27010KT PROB40 TEMPO 2318/2324 BKN008 BECMG 2400/2402 21005KT BKN008 TEMPO 2402/2407 3000 RADZ BKN003 BECMG 2408/2411 22015G30KT BKN017

超过4000个机场的气象观测和天气预报(METAR&TAF报告)。

可查询的气象台以黄色和红色小点在地图上表示。

将鼠标移到小点上方,可查看气象台名称。

然后点击查看天气观测和预报。

如需切换地图:点击带黑十字的绿色按钮放大地图;点击带横线的绿色按钮缩小地图;或者点击绿色箭头查看邻近地区的地图。


METAR-TAF: